• Join FlightAware (Why Join?)
  • Login
  • US Flag 
08:56PM EST


 

Airport Tracker/Info


-or-


 

Live Flight TrackerFlight Track Log ✈ QJE1798 ✈ 04-May-2013 ✈ YBBN / BNE - YBAS / ASP

Flight Track Log - Related Links

Times and Time Zones

All times are in EDT time to prevent confusion due to time zone crossing. See the QJE1798 flight status page for this flight to view local times or setup timezone preferences in your user account.

Time Position Orientation Groundspeed Altitude Reporting Facility
EDT Latitude Longitude Course Direction KTS MPH feet Rate Location/Type
06:07PM -27.4270 153.1058 208° Southwest 179 206 2,100  Level Aus ATC (RADAR)
06:08PM -27.4568 153.0877 208° Southwest 207 238 3,200 2,100 Climbing Aus ATC (RADAR)
06:09PM -27.4989 153.0493 219° Southwest 214 246 5,300 2,220 Climbing Aus ATC (RADAR)
06:09PM -27.4980 153.0278 273° West 241 277 5,800 2,640 Climbing Aus ATC (RADAR)
06:09PM -27.4734 152.9931 309° West 272 313 7,300 2,940 Climbing Aus ATC (RADAR)
06:10PM -27.4075 152.9530 332° Northwest 286 329 10,000 2,460 Climbing Aus ATC (RADAR)
06:11PM -27.3672 152.9190 323° Northwest 305 351 11,000 1,440 Climbing Aus ATC (RADAR)
06:12PM -27.3124 152.8318 305° West 346 398 12,300 1,320 Climbing Aus ATC (RADAR)
06:12PM -27.3089 152.8020 277° West 358 412 12,700 2,100 Climbing Aus ATC (RADAR)
06:13PM -27.2989 152.7439 281° West 368 423 13,900 2,160 Climbing Aus ATC (RADAR)
06:14PM -27.2795 152.6353 281° West 378 435 15,800 2,100 Climbing Aus ATC (RADAR)
06:14PM -27.2742 152.6055 281° West 379 436 16,400 2,100 Climbing Aus ATC (RADAR)
06:14PM -27.2632 152.5455 282° West 382 440 17,400 1,920 Climbing Aus ATC (RADAR)
06:15PM -27.2432 152.4312 281° West 395 455 19,200 1,980 Climbing Aus ATC (RADAR)
06:16PM -27.2307 152.3589 281° West 396 456 20,400 1,740 Climbing Aus ATC (RADAR)
06:17PM -27.2041 152.2123 281° West 405 466 22,300 1,620 Climbing Aus ATC (RADAR)
06:17PM -27.1978 152.1803 282° West 407 468 22,700 1,740 Climbing Aus ATC (RADAR)
06:18PM -27.1871 152.1149 280° West 416 479 23,600 1,320 Climbing Aus ATC (RADAR)
06:19PM -27.1624 151.9837 282° West 425 489 24,700 1,200 Climbing Aus ATC (RADAR)
06:19PM -27.1445 151.8820 281° West 435 501 25,700 1,440 Climbing Aus ATC (RADAR)
06:20PM -27.1197 151.7460 282° West 435 501 27,300 1,560 Climbing Aus ATC (RADAR)
06:21PM -27.1077 151.6784 281° West 431 496 28,100 1,620 Climbing Aus ATC (RADAR)
06:22PM -27.0830 151.5456 282° West 422 486 29,800 1,680 Climbing Aus ATC (RADAR)
06:22PM -27.0770 151.5133 282° West 417 480 30,200 1,080 Climbing Aus ATC (RADAR)
06:23PM -27.0628 151.4363 282° West 418 481 30,700 1,200 Climbing Aus ATC (RADAR)
06:24PM -27.0423 151.3271 282° West 421 484 31,900 1,440 Climbing Aus ATC (RADAR)
06:24PM -27.0365 151.2946 281° West 417 480 32,300 360 Climbing Aus ATC (RADAR)
06:24PM -27.0224 151.2191 282° West 416 479 32,200 -120 Descending Aus ATC (RADAR)
06:25PM -27.0001 151.1006 282° West 421 484 32,200  Level Aus ATC (RADAR)
06:26PM -26.9881 151.0365 282° West 414 476 32,200  Level Aus ATC (RADAR)
06:27PM -26.9578 150.8754 282° West 418 481 32,300  Climbing Aus ATC (RADAR)
06:28PM -26.9391 150.7789 282° West 415 478 32,300 -120 Level Aus ATC (RADAR)
06:29PM -26.9168 150.6628 282° West 409 471 32,200  Descending Aus ATC (RADAR)
06:29PM -26.9111 150.6320 282° West 403 464 32,300 120 Climbing Aus ATC (RADAR)
06:30PM -26.8972 150.5600 282° West 400 460 32,300  Level Aus ATC (RADAR)
06:30PM -26.8795 150.4552 281° West 410 472 32,300  Level Aus ATC (RADAR)
06:31PM -26.8635 150.3838 284° West 404 465 32,300  Level Aus ATC (RADAR)
06:32PM -26.8353 150.2388 282° West 404 465 32,300  Level Aus ATC (RADAR)
06:32PM -26.8293 150.2079 282° West 402 463 32,300  Level Aus ATC (RADAR)
06:33PM -26.8174 150.1461 282° West 401 461 32,300  Level Aus ATC (RADAR)
06:34PM -26.7890 150.0022 282° West 403 464 32,300  Level Aus ATC (RADAR)
06:34PM -26.7828 149.9715 283° West 400 460 32,300  Level Aus ATC (RADAR)
06:35PM -26.7664 149.8892 283° West 400 460 32,300  Level Aus ATC (RADAR)
06:36PM -26.7482 149.7975 283° West 401 461 32,300  Level Aus ATC (RADAR)
06:36PM -26.7342 149.7262 282° West 398 458 32,300  Level Aus ATC (RADAR)
06:37PM -26.7102 149.6040 282° West 398 458 32,300  Level Aus ATC (RADAR)
06:38PM -26.7036 149.5737 284° West 399 459 32,300  Level Aus ATC (RADAR)
06:38PM -26.6895 149.5028 283° West 398 458 32,300  Level Aus ATC (RADAR)
06:39PM -26.6672 149.3908 282° West 400 460 32,300  Level Aus ATC (RADAR)
06:39PM -26.6613 149.3601 282° West 400 460 32,300  Level Aus ATC (RADAR)
06:40PM -26.6495 149.2985 282° West 402 463 32,300  Level Aus ATC (RADAR)
06:41PM -26.6233 149.1709 283° West 418 481 32,300  Level Aus ATC (RADAR)
06:41PM -26.6101 149.1074 283° West 418 481 32,300  Level Aus ATC (RADAR)
06:42PM -26.5841 148.9814 283° West 416 479 32,300  Level Aus ATC (RADAR)
06:43PM -26.5780 148.9499 282° West 415 478 32,300  Level Aus ATC (RADAR)
06:43PM -26.5629 148.8765 283° West 414 476 32,300  Level Aus ATC (RADAR)
06:44PM -26.5397 148.7601 283° West 418 481 32,300  Level Aus ATC (RADAR)
06:44PM -26.5356 148.7279 278° West 420 483 32,300  Level Aus ATC (RADAR)
06:45PM -26.5258 148.6533 278° West 417 480 32,300  Level Aus ATC (RADAR)
06:46PM -26.5117 148.5388 278° West 410 472 32,300  Level Aus ATC (RADAR)
06:46PM -26.5033 148.4749 278° West 414 476 32,300  Level Aus ATC (RADAR)
06:48PM -26.4805 148.3060 279° West 410 472 32,300  Level Aus ATC (RADAR)
06:48PM -26.4760 148.2743 279° West 412 474 32,300  Level Aus ATC (RADAR)
06:48PM -26.4673 148.2111 279° West 411 473 32,300  Level Aus ATC (RADAR)
06:49PM -26.4523 148.0956 278° West 410 472 32,300  Level Aus ATC (RADAR)
06:50PM -26.4384 147.9904 278° West 410 472 32,300  Level Aus ATC (RADAR)
06:51PM -26.4225 147.8750 279° West 411 473 32,300  Level Aus ATC (RADAR)
06:52PM -26.4139 147.8123 279° West 410 472 32,300  Level Aus ATC (RADAR)
06:53PM -26.3970 147.6862 278° West 411 473 32,300  Level Aus ATC (RADAR)
06:53PM -26.3927 147.6546 279° West 411 473 32,300  Level Aus ATC (RADAR)
06:53PM -26.3840 147.5918 279° West 409 471 32,300  Level Aus ATC (RADAR)
06:54PM -26.3667 147.4653 279° West 412 474 32,300  Level Aus ATC (RADAR)
06:55PM -26.3618 147.4334 280° West 415 478 32,300  Level Aus ATC (RADAR)
06:55PM -26.3514 147.3592 279° West 414 476 32,300  Level Aus ATC (RADAR)
06:56PM -26.3316 147.2315 280° West 419 482 32,300  Level Aus ATC (RADAR)
06:57PM -26.3241 147.1880 281° West 422 486 32,300  Level Aus ATC (RADAR)
07:01PM -26.2413 146.5672 279° West 32,000 -120 Descending Aus ATC (Calculated)
07:03PM -26.2160 146.3965 279° West  Level FlightAware Approximate
07:04PM -26.1979 146.2745 279° West  Level FlightAware Approximate
07:05PM -26.1796 146.1526 279° West  Level FlightAware Approximate
07:06PM -26.1613 146.0307 279° West  Level FlightAware Approximate
07:07PM -26.1429 145.9089 280° West  Level FlightAware Approximate
07:08PM -26.1243 145.7871 280° West  Level FlightAware Approximate
07:09PM -26.1056 145.6654 280° West  Level FlightAware Approximate
07:10PM -26.0869 145.5437 280° West  Level FlightAware Approximate
07:11PM -26.0680 145.4220 280° West  Level FlightAware Approximate
07:11PM -26.0532 145.3267 280° West 32,000  Level Aus ATC (Calculated)
07:12PM -26.0491 145.3003 280° West  Level FlightAware Approximate
07:13PM -26.0268 145.1585 280° West  Level FlightAware Approximate
07:14PM -26.0077 145.0370 280° West  Level FlightAware Approximate
07:15PM -25.9884 144.9155 280° West  Level FlightAware Approximate
07:16PM -25.9690 144.7940 280° West  Level FlightAware Approximate
07:16PM -25.9602 144.7361 281° West 32,000  Level Aus ATC (Calculated)
07:17PM -25.9495 144.6726 280° West  Level FlightAware Approximate
07:18PM -25.9948 144.9798 99° East  Level FlightAware Approximate
07:19PM -25.9776 144.8580 279° West  Level FlightAware Approximate
07:19PM -25.8967 144.3419 280° West 32,000  Level Aus ATC (Calculated)
07:21PM -25.8679 144.1651 280° West  Level Estimated
07:22PM -25.8482 144.0446 280° West  Level FlightAware Approximate
07:23PM -25.8283 143.9242 280° West  Level FlightAware Approximate
07:24PM -25.8083 143.8038 280° West  Level FlightAware Approximate
07:25PM -25.7882 143.6834 280° West  Level FlightAware Approximate
07:26PM -25.7680 143.5631 281° West  Level FlightAware Approximate
07:26PM -25.7473 143.4407 103° East 32,000  Level Aus ATC (Calculated)
07:27PM -25.7477 143.4429 281° West  Level FlightAware Approximate
07:28PM -25.7146 143.2483 281° West  Level FlightAware Approximate
07:29PM -25.6940 143.1282 281° West  Level FlightAware Approximate
07:30PM -25.6734 143.0081 281° West  Level FlightAware Approximate
07:31PM -25.6527 142.8880 281° West  Level FlightAware Approximate
07:32PM -25.6318 142.7679 281° West  Level FlightAware Approximate
07:33PM -25.6109 142.6479 281° West  Level FlightAware Approximate
07:33PM -25.5989 142.5792 281° West 32,000  Level Aus ATC (Calculated)
07:34PM -25.5831 142.4896 281° West 32,000  Level Aus ATC (Calculated)
07:35PM -25.5580 142.3474 281° West  Level FlightAware Approximate
07:36PM -25.5367 142.2275 281° West  Level FlightAware Approximate
07:37PM -25.5153 142.1077 281° West  Level FlightAware Approximate
07:38PM -25.4986 142.0142 281° West  Level FlightAware Approximate
07:39PM -25.4771 141.8945 281° West  Level FlightAware Approximate
07:40PM -25.4554 141.7748 281° West  Level FlightAware Approximate
07:41PM -25.4337 141.6552 281° West  Level FlightAware Approximate
07:42PM -25.4118 141.5356 281° West  Level FlightAware Approximate
07:42PM -25.3868 141.3992 282° West 32,000  Level Aus ATC (Calculated)
07:44PM -25.3481 141.1901 282° West  Level FlightAware Approximate
07:45PM -25.3259 141.0707 282° West  Level FlightAware Approximate
07:45PM -25.3200 141.0389 282° West 32,000  Level Aus ATC (Calculated)
07:45PM -25.2995 140.9297 338° Northwest 32,000  Level Aus ATC (Calculated)
07:45PM -25.2995 140.9297 102° East 32,000  Level Aus ATC (Calculated)
07:47PM -25.3637 141.2738 102° East  Level FlightAware Approximate
07:48PM -25.3416 141.1543 282° West  Level Estimated
07:49PM -25.2259 140.5401 282° West  Level FlightAware Approximate
07:50PM -25.2032 140.4209 282° West  Level FlightAware Approximate
07:51PM -25.1804 140.3017 282° West  Level FlightAware Approximate
07:52PM -25.1574 140.1826 282° West  Level FlightAware Approximate
07:53PM -25.1344 140.0636 282° West  Level FlightAware Approximate
07:54PM -25.1113 139.9445 282° West  Level FlightAware Approximate
07:55PM -25.0881 139.8255 282° West  Level FlightAware Approximate
07:56PM -25.0647 139.7066 282° West  Level FlightAware Approximate
07:56PM -25.0375 139.5682 282° West 32,000  Level Aus ATC (Calculated)
07:57PM -25.0160 139.4595 282° West 32,000  Level Aus ATC (Calculated)
07:58PM -24.9963 139.3603 282° West  Level FlightAware Approximate
07:59PM -24.9699 139.2280 282° West  Level FlightAware Approximate
08:00PM -24.9461 139.1093 282° West  Level FlightAware Approximate
08:01PM -24.9222 138.9906 282° West  Level FlightAware Approximate
08:02PM -24.8983 138.8720 283° West  Level FlightAware Approximate
08:03PM -24.8742 138.7535 283° West  Level FlightAware Approximate
08:04PM -24.8500 138.6350 283° West  Level FlightAware Approximate
08:05PM -24.8258 138.5165 283° West  Level FlightAware Approximate
08:06PM -24.8014 138.3981 283° West  Level FlightAware Approximate
08:07PM -24.7771 138.2797 283° West  Level Estimated
08:08PM -24.7526 138.1614 283° West  Level FlightAware Approximate
08:09PM -24.7279 138.0431 283° West  Level FlightAware Approximate
08:09PM -24.6954 137.8881 283° West 32,000  Level Aus ATC (Calculated)
08:11PM -24.6545 137.6939 283° West  Level FlightAware Approximate
08:11PM -24.6378 137.6151 283° West 32,000  Level Aus ATC (Calculated)
08:12PM -24.6137 137.5012 283° West 32,000  Level Aus ATC (Calculated)
08:13PM -24.6008 137.4408 283° West  Level FlightAware Approximate
08:14PM -24.5755 137.3221 283° West  Level FlightAware Approximate
08:15PM -24.5473 137.1884 284° West  Level Estimated
08:16PM -24.5217 137.0698 283° West  Level FlightAware Approximate
08:16PM -24.5161 137.0462 283° West 32,000  Level Aus ATC (Calculated)
08:17PM -24.4904 136.9277 283° West  Level FlightAware Approximate
08:17PM -24.4792 136.8758 283° West 32,000  Level Aus ATC (Calculated)
08:19PM -24.4330 136.6645 283° West  Level FlightAware Approximate
08:19PM -24.4147 136.5811 284° West 900  Level Aus ATC (Calculated)
08:20PM -24.4069 136.5461 284° West  Level FlightAware Approximate
08:20PM -24.3948 136.4906 153° Southeast 900  Level Aus ATC (Calculated)
08:20PM -24.3948 136.4906 284° West 900  Level Aus ATC (Calculated)
08:21PM -24.3825 136.4351 284° West  Level FlightAware Approximate
08:22PM -24.3598 136.3328 284° West  Level FlightAware Approximate
08:23PM -24.3335 136.2146 284° West  Level FlightAware Approximate
08:24PM -24.3071 136.0964 284° West  Level FlightAware Approximate
08:25PM -24.2806 135.9782 284° West  Level FlightAware Approximate
08:26PM -24.2541 135.8601 284° West  Level FlightAware Approximate
08:27PM -24.2274 135.7421 284° West  Level FlightAware Approximate
08:28PM -24.2006 135.6240 284° West  Level FlightAware Approximate
08:29PM -24.1738 135.5061 284° West  Level FlightAware Approximate
08:30PM -24.1501 135.3873 127° Southeast  Level Estimated
08:31PM -24.1234 135.2693 127° Southeast  Level Estimated
08:32PM -24.0966 135.1514 127° Southeast  Level Estimated
08:32PM -24.0889 135.1363 282° West 900  Level Aus ATC (Calculated)
08:33PM -24.0698 135.0336 127° Southeast  Level Estimated
08:34PM -24.0451 134.9417 127° Southeast  Level Estimated
08:35PM -24.0185 134.8239 127° Southeast  Level Estimated
08:35PM -24.0263 134.8662 283° West 900  Level Aus ATC (Calculated)
08:36PM -23.9918 134.7060 127° Southeast  Level Estimated
08:37PM -23.9799 134.6600 127° Southeast  Level Estimated
08:37PM -23.9632 134.5964 281° West 900  Level Aus ATC (Calculated)
08:38PM -23.9532 134.5421 127° Southeast  Level Estimated
08:39PM -23.9166 134.3882 127° Southeast  Level Estimated
08:39PM -23.9209 134.4167 283° West 900  Level Aus ATC (Calculated)
08:40PM -23.8901 134.2704 127° Southeast  Level Estimated
08:41PM -23.8749 134.2084 127° Southeast  Level Estimated
08:41PM -23.8570 134.1473 279° West 900  Level Aus ATC (Calculated)
08:42PM -23.8487 134.0905 127° Southeast  Level Estimated
08:43PM -23.8275 134.0034 127° Southeast  Level Estimated
08:44PM -23.8083 133.9009 127° Southeast  Level FlightAware Approximate
08:45PM -23.8067 133.9022 127° Southeast  Level Estimated
08:46PM -23.8083 133.9009 127° Southeast  Level FlightAware Approximate
08:47PM -23.8067 133.9022 127° Southeast  Level Estimated
08:48PM -23.8083 133.9009 127° Southeast  Level FlightAware Approximate
08:49PM -23.8067 133.9022 127° Southeast  Level Estimated
08:50PM -23.8083 133.9009 127° Southeast  Level FlightAware Approximate
08:51PM -23.8067 133.9022 127° Southeast  Level Estimated
08:52PM -23.8083 133.9009 127° Southeast  Level FlightAware Approximate